METAR Data
IDs: Format: Raw Decoded Include TAF

Data at: 2134 UTC 24 Mar 2019

KF44 242115Z AUTO 22005KT 10SM SCT035 OVC041 23/15 A3001 RMK AO2
KF44 242055Z AUTO 16005KT 10SM SCT030 OVC039 23/16 A3001 RMK AO2
KF44 242035Z AUTO 20004KT 10SM BKN030 OVC038 23/16 A3002 RMK AO2
KF44 242015Z AUTO 21006KT 10SM SCT030 OVC038 23/16 A3002 RMK AO2
KF44 241955Z AUTO 22005KT 10SM SCT028 OVC038 22/16 A3003 RMK AO2
KF44 241935Z AUTO 23006KT 10SM SCT027 OVC036 22/16 A3004 RMK AO2
KF44 241915Z AUTO 24003KT 10SM OVC027 22/16 A3004 RMK AO2
KF44 241855Z AUTO 22006KT 10SM OVC029 22/16 A3005 RMK AO2
KF44 241835Z AUTO 20005KT 10SM BKN023 OVC030 22/16 A3005 RMK AO2
KF44 241815Z AUTO 22005KT 10SM OVC025 21/16 A3006 RMK AO2
KF44 241755Z AUTO 18006KT 10SM OVC022 21/16 A3007 RMK AO2
KF44 241735Z AUTO 19006KT 10SM BKN022 OVC028 21/16 A3007 RMK AO2
KF44 241715Z AUTO 19003KT 10SM OVC020 21/16 A3008 RMK AO2
KF44 241655Z AUTO 21005KT 10SM OVC018 20/16 A3008 RMK AO2
KF44 241635Z AUTO 19005KT 10SM OVC016 20/16 A3009 RMK AO2
KF44 241615Z AUTO 18006KT 10SM OVC014 20/16 A3009 RMK AO2
KF44 241555Z AUTO 17007KT 10SM OVC012 19/16 A3009 RMK AO2
KF44 241535Z AUTO 19006KT 10SM OVC010 19/16 A3009 RMK AO2
KF44 241515Z AUTO 19005KT 10SM OVC010 18/16 A3009 RMK AO2
KF44 241455Z AUTO 18007KT 160V220 10SM BKN010 BKN015 OVC020 17/15 A3010 RMK AO2
KF44 241435Z AUTO 19006KT 10SM OVC010 17/15 A3010 RMK AO2
KF44 241415Z AUTO 18005KT 10SM OVC010 17/15 A3009 RMK AO2
KF44 241355Z AUTO 20005KT 10SM OVC010 17/15 A3009 RMK AO2
KF44 241335Z AUTO 20005KT 10SM OVC010 16/15 A3008 RMK AO2
KF44 241315Z AUTO 00000KT 10SM OVC010 16/15 A3007 RMK AO2
KF44 241255Z AUTO 18006KT 10SM BKN010 OVC039 16/15 A3007 RMK AO2
KF44 241235Z AUTO 18006KT 10SM BKN010 BKN014 OVC038 16/15 A3006 RMK AO2
KF44 241215Z AUTO 19004KT 10SM BKN012 BKN030 OVC039 16/14 A3006 RMK AO2
KF44 241155Z AUTO 19006KT 10SM SCT012 BKN025 OVC037 16/14 A3006 RMK AO2
KF44 241135Z AUTO 18008KT 10SM SCT011 BKN026 OVC035 16/14 A3005 RMK AO2
KF44 241115Z AUTO 17007KT 10SM SCT011 OVC031 16/14 A3005 RMK AO2
KF44 241055Z AUTO 17008KT 10SM OVC027 16/14 A3004 RMK AO2
KF44 241035Z AUTO 17007KT 10SM SCT020 OVC027 16/14 A3005 RMK AO2
KF44 241015Z AUTO 18006KT 10SM BKN020 OVC027 16/14 A3005 RMK AO2
KF44 240955Z AUTO 18007KT 10SM BKN020 OVC027 16/14 A3005 RMK AO2
KF44 240935Z AUTO 19005KT 10SM OVC027 16/13 A3005 RMK AO2
KF44 240915Z AUTO 17008KT 10SM OVC025 16/13 A3005 RMK AO2
KF44 240855Z AUTO 18007G15KT 10SM SCT023 OVC032 16/13 A3006 RMK AO2
KF44 240835Z AUTO 18007KT 10SM OVC034 16/13 A3006 RMK AO2
KF44 240815Z AUTO 18009KT 10SM OVC036 16/13 A3006 RMK AO2
KF44 240755Z AUTO 18008KT 10SM BKN038 16/13 A3007 RMK AO2
KF44 240735Z AUTO 18007G14KT 10SM SCT038 16/13 A3006 RMK AO2
KF44 240715Z AUTO 18009KT 10SM CLR 16/13 A3006 RMK AO2
KF44 240655Z AUTO 17008G14KT 10SM CLR 16/13 A3006 RMK AO2
KF44 240635Z AUTO 17010KT 10SM CLR 17/13 A3007 RMK AO2
KF44 240615Z AUTO 18008KT 10SM CLR 17/13 A3007 RMK AO2 LTG DSNT N
KF44 240555Z AUTO 18009KT 10SM CLR 17/13 A3006 RMK AO2
KF44 240535Z AUTO 18010G19KT 10SM CLR 17/13 A3006 RMK AO2
KF44 240515Z AUTO 17015G21KT 10SM CLR 17/13 A3005 RMK AO2
KF44 240455Z AUTO 17010G17KT 10SM CLR 18/13 A3005 RMK AO2
KF44 240435Z AUTO 17012G15KT 10SM CLR 18/13 A3006 RMK AO2
KF44 240415Z AUTO 17007G15KT 10SM CLR 18/13 A3006 RMK AO2
KF44 240355Z AUTO 18012G22KT 10SM CLR 18/13 A3006 RMK AO2
KF44 240335Z AUTO 17013G18KT 10SM CLR 18/13 A3005 RMK AO2
KF44 240315Z AUTO 17010G16KT 10SM SCT055 19/12 A3005 RMK AO2
KF44 240255Z AUTO 17009G19KT 160V220 10SM SCT055 19/12 A3005 RMK AO2
KF44 240235Z AUTO 17011G16KT 10SM SCT055 SCT070 20/12 A3004 RMK AO2
KF44 240215Z AUTO 16011KT 10SM BKN060 OVC095 20/12 A3004 RMK AO2
KF44 240155Z AUTO 17007KT 10SM SCT060 BKN070 OVC095 20/12 A3004 RMK AO2
KF44 240135Z AUTO 16007KT 10SM OVC060 20/12 A3004 RMK AO2 LTG DSNT NE
KF44 240115Z AUTO 18009G15KT 150V210 10SM OVC060 21/12 A3003 RMK AO2
KF44 240055Z AUTO 16012G15KT 10SM OVC060 21/12 A3003 RMK AO2
KF44 240035Z AUTO 18011G15KT 10SM OVC060 21/11 A3003 RMK AO2
KF44 240015Z AUTO 16009G15KT 10SM OVC065 21/11 A3003 RMK AO2
KF44 232355Z AUTO 17009G18KT 10SM BKN065 21/11 A3002 RMK AO2 LTG DSNT NE
KF44 232335Z AUTO 17010G19KT 150V210 10SM CLR 22/10 A3001 RMK AO2
KF44 232315Z AUTO 17012G19KT 10SM CLR 22/10 A3001 RMK AO2 LTG DSNT NE
KF44 232255Z AUTO 17014G19KT 10SM CLR 22/10 A3002 RMK AO2 LTG DSNT N
KF44 232235Z AUTO 18017G21KT 10SM CLR 23/10 A3001 RMK AO2
KF44 232215Z AUTO 16016G21KT 10SM CLR 23/08 A3001 RMK AO2 LTG DSNT NE
KF44 232155Z AUTO 15016KT 10SM SCT065 23/11 A3001 RMK AO2 LTG DSNT N
KF44 232135Z AUTO 16013G18KT 10SM CLR 23/11 A3001 RMK AO2
KF44 232115Z AUTO 16014G20KT 10SM SCT075 23/11 A3002 RMK AO2
KF44 232055Z AUTO 17012G18KT 10SM BKN075 23/11 A3003 RMK AO2
KF44 232035Z AUTO 19010G16KT 10SM CLR 23/11 A3004 RMK AO2 LTG DSNT N
KF44 232015Z AUTO 18015G19KT 10SM SCT100 23/10 A3004 RMK AO2
KF44 231955Z AUTO 16013G18KT 10SM SCT075 SCT100 SCT120 22/11 A3005 RMK AO2
KF44 231935Z AUTO 16012G16KT 10SM SCT075 BKN090 BKN120 22/11 A3007 RMK AO2
KF44 231915Z AUTO 18011G14KT 10SM BKN075 OVC090 21/12 A3008 RMK AO2
KF44 231855Z AUTO 19007KT 10SM OVC075 21/11 A3009 RMK AO2
KF44 231835Z AUTO 20009KT 10SM OVC080 21/11 A3009 RMK AO2
KF44 231815Z AUTO 18010G14KT 10SM SCT070 BKN090 OVC120 21/11 A3010 RMK AO2
KF44 231755Z AUTO 19008KT 10SM SCT070 BKN090 BKN120 21/12 A3010 RMK AO2
KF44 231735Z AUTO 18012G16KT 10SM BKN070 BKN090 BKN120 21/12 A3011 RMK AO2
KF44 231715Z AUTO 17012G17KT 10SM BKN070 20/12 A3011 RMK AO2 LTG DSNT N
KF44 231655Z AUTO 18009KT 10SM SCT070 20/13 A3012 RMK AO2
KF44 231635Z AUTO 18010G19KT 10SM SCT120 19/13 A3011 RMK AO2 LTG DSNT N
KF44 231615Z AUTO 19009G16KT 10SM BKN120 18/12 A3011 RMK AO2 LTG DSNT N
KF44 231555Z AUTO 16007KT 10SM BKN110 16/12 A3012 RMK AO2 LTG DSNT N
KF44 231535Z AUTO 18003KT 10SM SCT100 SCT120 15/12 A3012 RMK AO2
KF44 231515Z AUTO 20005KT 10SM -RA SCT100 OVC110 14/12 A3013 RMK AO2 LTG DSNT N
KF44 231455Z AUTO 18005KT 10SM -RA OVC100 13/12 A3012 RMK AO2 LTG DSNT N AND SW P0001
KF44 231435Z AUTO 13008KT 10SM -RA OVC110 13/12 A3012 RMK AO2 LTG DSNT N AND SW
KF44 231415Z AUTO 18005KT 10SM -RA OVC100 13/11 A3014 RMK AO2 LTG DSNT SW AND NW
KF44 231355Z AUTO 15006KT 10SM -VCTSRA SCT070 OVC100 14/11 A3011 RMK AO2 LTG DSNT SW AND NW
KF44 231335Z AUTO 15006KT 10SM BKN070 BKN120 14/10 A3012 RMK AO2 LTG DSNT SW
KF44 231315Z AUTO 16004KT 10SM SCT070 SCT120 13/10 A3012 RMK AO2 LTG DSNT SW AND W
KF44 231255Z AUTO 00000KT 10SM CLR 13/10 A3011 RMK AO2
KF44 231235Z AUTO 00000KT 10SM SCT120 12/10 A3009 RMK AO2
KF44 231215Z AUTO 00000KT 10SM CLR 12/09 A3009 RMK AO2
KF44 231155Z AUTO 00000KT 10SM CLR 12/09 A3008 RMK AO2 LTG DSNT W
KF44 231135Z AUTO 00000KT 10SM CLR 12/09 A3007 RMK AO2
KF44 231115Z AUTO 00000KT 10SM CLR 13/08 A3006 RMK AO2 LTG DSNT W
KF44 231055Z AUTO 00000KT 10SM CLR 13/08 A3006 RMK AO2
KF44 231035Z AUTO 00000KT 10SM SCT100 14/08 A3006 RMK AO2
KF44 231015Z AUTO 00000KT 10SM SCT070 SCT090 SCT110 14/08 A3005 RMK AO2
KF44 230955Z AUTO 13005KT 10SM BKN070 BKN110 15/08 A3005 RMK AO2
KF44 230935Z AUTO 00000KT 10SM OVC070 15/08 A3007 RMK AO2